sensor_id;sensor_type;location;lat;lon;timestamp;pressure;altitude;pressure_sealevel;temperature
16956;BMP180;8594;52.052;8.354;2023-02-01T00:00:01;100701.00;;;7.70
16956;BMP180;8594;52.052;8.354;2023-02-01T00:02:28;100696.00;;;7.10
16956;BMP180;8594;52.052;8.354;2023-02-01T00:04:55;100692.00;;;7.10
16956;BMP180;8594;52.052;8.354;2023-02-01T00:07:22;100689.00;;;7.50
16956;BMP180;8594;52.052;8.354;2023-02-01T00:09:48;100692.00;;;7.40
16956;BMP180;8594;52.052;8.354;2023-02-01T00:12:15;100694.00;;;7.50
16956;BMP180;8594;52.052;8.354;2023-02-01T00:14:43;100690.00;;;7.60
16956;BMP180;8594;52.052;8.354;2023-02-01T00:17:10;100691.00;;;7.40
16956;BMP180;8594;52.052;8.354;2023-02-01T00:19:37;100697.00;;;7.70
16956;BMP180;8594;52.052;8.354;2023-02-01T00:22:04;100699.00;;;7.60
16956;BMP180;8594;52.052;8.354;2023-02-01T00:24:30;100701.00;;;7.70
16956;BMP180;8594;52.052;8.354;2023-02-01T00:26:57;100704.00;;;7.50
16956;BMP180;8594;52.052;8.354;2023-02-01T00:29:24;100694.00;;;7.30
16956;BMP180;8594;52.052;8.354;2023-02-01T00:31:53;100690.00;;;7.40
16956;BMP180;8594;52.052;8.354;2023-02-01T00:34:20;100686.00;;;7.40
16956;BMP180;8594;52.052;8.354;2023-02-01T00:36:47;100688.00;;;7.30
16956;BMP180;8594;52.052;8.354;2023-02-01T00:39:15;100682.00;;;7.20
16956;BMP180;8594;52.052;8.354;2023-02-01T00:41:42;100664.00;;;7.20
16956;BMP180;8594;52.052;8.354;2023-02-01T00:44:09;100673.00;;;7.50
16956;BMP180;8594;52.052;8.354;2023-02-01T00:46:36;100674.00;;;7.50
16956;BMP180;8594;52.052;8.354;2023-02-01T00:49:04;100661.00;;;7.20
16956;BMP180;8594;52.052;8.354;2023-02-01T00:51:32;100663.00;;;7.00
16956;BMP180;8594;52.052;8.354;2023-02-01T00:53:59;100666.00;;;7.30
16956;BMP180;8594;52.052;8.354;2023-02-01T00:56:26;100670.00;;;7.40
16956;BMP180;8594;52.052;8.354;2023-02-01T00:58:54;100675.00;;;7.10
16956;BMP180;8594;52.052;8.354;2023-02-01T01:01:23;100675.00;;;7.40
16956;BMP180;8594;52.052;8.354;2023-02-01T01:03:53;100671.00;;;7.10
16956;BMP180;8594;52.052;8.354;2023-02-01T01:06:25;100674.00;;;7.40
16956;BMP180;8594;52.052;8.354;2023-02-01T01:08:54;100668.00;;;7.20
16956;BMP180;8594;52.052;8.354;2023-02-01T01:11:24;100669.00;;;7.20
16956;BMP180;8594;52.052;8.354;2023-02-01T01:13:53;100658.00;;;7.30
16956;BMP180;8594;52.052;8.354;2023-02-01T01:16:23;100653.00;;;7.30
16956;BMP180;8594;52.052;8.354;2023-02-01T01:18:52;100649.00;;;7.10
16956;BMP180;8594;52.052;8.354;2023-02-01T01:21:21;100656.00;;;7.20
16956;BMP180;8594;52.052;8.354;2023-02-01T01:23:48;100663.00;;;7.10
16956;BMP180;8594;52.052;8.354;2023-02-01T01:26:18;100664.00;;;7.20
16956;BMP180;8594;52.052;8.354;2023-02-01T01:28:45;100666.00;;;7.20
16956;BMP180;8594;52.052;8.354;2023-02-01T01:31:15;100660.00;;;7.10
16956;BMP180;8594;52.052;8.354;2023-02-01T01:33:42;100667.00;;;7.20
16956;BMP180;8594;52.052;8.354;2023-02-01T01:36:11;100665.00;;;7.40
16956;BMP180;8594;52.052;8.354;2023-02-01T01:38:40;100667.00;;;7.20
16956;BMP180;8594;52.052;8.354;2023-02-01T01:41:12;100674.00;;;7.30
16956;BMP180;8594;52.052;8.354;2023-02-01T01:43:57;100673.00;;;7.10
16956;BMP180;8594;52.052;8.354;2023-02-01T01:46:27;100657.00;;;7.10
16956;BMP180;8594;52.052;8.354;2023-02-01T01:49:04;100659.00;;;7.10
16956;BMP180;8594;52.052;8.354;2023-02-01T01:51:36;100665.00;;;7.20
16956;BMP180;8594;52.052;8.354;2023-02-01T01:54:12;100655.00;;;7.60
16956;BMP180;8594;52.052;8.354;2023-02-01T01:56:41;100642.00;;;7.30
16956;BMP180;8594;52.052;8.354;2023-02-01T01:59:09;100648.00;;;7.20
16956;BMP180;8594;52.052;8.354;2023-02-01T02:01:36;100642.00;;;7.60
16956;BMP180;8594;52.052;8.354;2023-02-01T02:04:04;100636.00;;;7.40
16956;BMP180;8594;52.052;8.354;2023-02-01T02:06:40;100638.00;;;7.20
16956;BMP180;8594;52.052;8.354;2023-02-01T02:09:12;100629.00;;;7.20
16956;BMP180;8594;52.052;8.354;2023-02-01T02:11:39;100633.00;;;7.20
16956;BMP180;8594;52.052;8.354;2023-02-01T02:14:09;100618.00;;;7.40
16956;BMP180;8594;52.052;8.354;2023-02-01T02:17:00;100628.00;;;7.30
16956;BMP180;8594;52.052;8.354;2023-02-01T02:20:11;100612.00;;;7.30
16956;BMP180;8594;52.052;8.354;2023-02-01T02:23:42;100616.00;;;7.50
16956;BMP180;8594;52.052;8.354;2023-02-01T02:27:01;100610.00;;;7.20
16956;BMP180;8594;52.052;8.354;2023-02-01T02:33:41;100613.00;;;7.20
16956;BMP180;8594;52.052;8.354;2023-02-01T02:36:16;100596.00;;;7.20
16956;BMP180;8594;52.052;8.354;2023-02-01T02:38:54;100587.00;;;7.20
16956;BMP180;8594;52.052;8.354;2023-02-01T02:41:29;100574.00;;;7.40
16956;BMP180;8594;52.052;8.354;2023-02-01T02:44:28;100576.00;;;7.60
16956;BMP180;8594;52.052;8.354;2023-02-01T02:47:26;100572.00;;;7.60
16956;BMP180;8594;52.052;8.354;2023-02-01T02:50:10;100563.00;;;7.50
16956;BMP180;8594;52.052;8.354;2023-02-01T02:53:01;100562.00;;;7.40
16956;BMP180;8594;52.052;8.354;2023-02-01T02:55:50;100563.00;;;7.40
16956;BMP180;8594;52.052;8.354;2023-02-01T02:58:19;100543.00;;;7.20
16956;BMP180;8594;52.052;8.354;2023-02-01T03:01:05;100552.00;;;7.60
16956;BMP180;8594;52.052;8.354;2023-02-01T03:03:50;100553.00;;;7.40
16956;BMP180;8594;52.052;8.354;2023-02-01T03:06:37;100561.00;;;7.40
16956;BMP180;8594;52.052;8.354;2023-02-01T03:09:14;100568.00;;;7.40
16956;BMP180;8594;52.052;8.354;2023-02-01T03:11:45;100548.00;;;7.60
16956;BMP180;8594;52.052;8.354;2023-02-01T03:14:34;100554.00;;;7.30
16956;BMP180;8594;52.052;8.354;2023-02-01T03:17:09;100566.00;;;7.70
16956;BMP180;8594;52.052;8.354;2023-02-01T03:19:43;100552.00;;;7.60
16956;BMP180;8594;52.052;8.354;2023-02-01T03:22:20;100557.00;;;7.80
16956;BMP180;8594;52.052;8.354;2023-02-01T03:24:53;100546.00;;;7.10
16956;BMP180;8594;52.052;8.354;2023-02-01T03:27:24;100548.00;;;7.60
16956;BMP180;8594;52.052;8.354;2023-02-01T03:30:00;100535.00;;;7.30
16956;BMP180;8594;52.052;8.354;2023-02-01T03:32:28;100522.00;;;7.40
16956;BMP180;8594;52.052;8.354;2023-02-01T03:35:16;100518.00;;;7.40
16956;BMP180;8594;52.052;8.354;2023-02-01T03:37:45;100512.00;;;7.80
16956;BMP180;8594;52.052;8.354;2023-02-01T03:40:15;100509.00;;;7.30
16956;BMP180;8594;52.052;8.354;2023-02-01T03:42:49;100513.00;;;7.90
16956;BMP180;8594;52.052;8.354;2023-02-01T03:45:24;100511.00;;;7.60
16956;BMP180;8594;52.052;8.354;2023-02-01T03:47:56;100505.00;;;7.20
16956;BMP180;8594;52.052;8.354;2023-02-01T03:50:26;100514.00;;;7.40
16956;BMP180;8594;52.052;8.354;2023-02-01T03:53:01;100507.00;;;7.40
16956;BMP180;8594;52.052;8.354;2023-02-01T03:55:31;100511.00;;;7.60
16956;BMP180;8594;52.052;8.354;2023-02-01T03:58:06;100510.00;;;7.50
16956;BMP180;8594;52.052;8.354;2023-02-01T04:00:33;100509.00;;;7.80
16956;BMP180;8594;52.052;8.354;2023-02-01T04:03:04;100508.00;;;7.60
16956;BMP180;8594;52.052;8.354;2023-02-01T04:05:31;100504.00;;;7.60
16956;BMP180;8594;52.052;8.354;2023-02-01T04:08:00;100505.00;;;7.60
16956;BMP180;8594;52.052;8.354;2023-02-01T04:10:27;100500.00;;;7.70
16956;BMP180;8594;52.052;8.354;2023-02-01T04:12:54;100492.00;;;7.70
16956;BMP180;8594;52.052;8.354;2023-02-01T04:15:21;100492.00;;;7.50
16956;BMP180;8594;52.052;8.354;2023-02-01T04:17:47;100500.00;;;7.40
16956;BMP180;8594;52.052;8.354;2023-02-01T04:20:15;100482.00;;;7.50
16956;BMP180;8594;52.052;8.354;2023-02-01T04:22:42;100479.00;;;7.50
16956;BMP180;8594;52.052;8.354;2023-02-01T04:25:10;100479.00;;;7.70
16956;BMP180;8594;52.052;8.354;2023-02-01T04:27:37;100482.00;;;7.70
16956;BMP180;8594;52.052;8.354;2023-02-01T04:30:05;100488.00;;;7.60
16956;BMP180;8594;52.052;8.354;2023-02-01T04:32:35;100478.00;;;7.20
16956;BMP180;8594;52.052;8.354;2023-02-01T04:35:02;100476.00;;;7.30
16956;BMP180;8594;52.052;8.354;2023-02-01T04:37:29;100481.00;;;7.20
16956;BMP180;8594;52.052;8.354;2023-02-01T04:39:55;100477.00;;;7.10
16956;BMP180;8594;52.052;8.354;2023-02-01T04:42:24;100487.00;;;7.50
16956;BMP180;8594;52.052;8.354;2023-02-01T04:44:50;100467.00;;;7.20
16956;BMP180;8594;52.052;8.354;2023-02-01T04:47:17;100476.00;;;7.30
16956;BMP180;8594;52.052;8.354;2023-02-01T04:49:44;100467.00;;;7.50
16956;BMP180;8594;52.052;8.354;2023-02-01T04:52:11;100469.00;;;7.10
16956;BMP180;8594;52.052;8.354;2023-02-01T04:54:38;100470.00;;;7.40
16956;BMP180;8594;52.052;8.354;2023-02-01T04:57:05;100469.00;;;7.00
16956;BMP180;8594;52.052;8.354;2023-02-01T04:59:33;100469.00;;;7.00
16956;BMP180;8594;52.052;8.354;2023-02-01T05:02:00;100457.00;;;6.80
16956;BMP180;8594;52.052;8.354;2023-02-01T05:04:27;100458.00;;;7.20
16956;BMP180;8594;52.052;8.354;2023-02-01T05:06:54;100473.00;;;7.30
16956;BMP180;8594;52.052;8.354;2023-02-01T05:09:21;100470.00;;;7.20
16956;BMP180;8594;52.052;8.354;2023-02-01T05:11:49;100467.00;;;7.30
16956;BMP180;8594;52.052;8.354;2023-02-01T05:14:35;100466.00;;;7.30
16956;BMP180;8594;52.052;8.354;2023-02-01T05:17:02;100462.00;;;6.70
16956;BMP180;8594;52.052;8.354;2023-02-01T05:19:29;100457.00;;;6.80
16956;BMP180;8594;52.052;8.354;2023-02-01T05:21:56;100462.00;;;7.10
16956;BMP180;8594;52.052;8.354;2023-02-01T05:24:23;100451.00;;;7.30
16956;BMP180;8594;52.052;8.354;2023-02-01T05:26:50;100445.00;;;7.30
16956;BMP180;8594;52.052;8.354;2023-02-01T05:29:18;100446.00;;;7.30
16956;BMP180;8594;52.052;8.354;2023-02-01T05:31:47;100442.00;;;7.20
16956;BMP180;8594;52.052;8.354;2023-02-01T05:34:15;100432.00;;;7.30
16956;BMP180;8594;52.052;8.354;2023-02-01T05:36:42;100439.00;;;6.90
16956;BMP180;8594;52.052;8.354;2023-02-01T05:39:09;100436.00;;;7.50
16956;BMP180;8594;52.052;8.354;2023-02-01T05:41:36;100427.00;;;6.80
16956;BMP180;8594;52.052;8.354;2023-02-01T05:44:03;100429.00;;;7.30
16956;BMP180;8594;52.052;8.354;2023-02-01T05:46:35;100419.00;;;7.20
16956;BMP180;8594;52.052;8.354;2023-02-01T05:49:04;100428.00;;;7.00
16956;BMP180;8594;52.052;8.354;2023-02-01T05:51:31;100427.00;;;7.10
16956;BMP180;8594;52.052;8.354;2023-02-01T05:53:58;100425.00;;;7.30
16956;BMP180;8594;52.052;8.354;2023-02-01T05:56:25;100433.00;;;7.20
16956;BMP180;8594;52.052;8.354;2023-02-01T05:58:52;100428.00;;;7.50
16956;BMP180;8594;52.052;8.354;2023-02-01T06:01:19;100422.00;;;7.50
16956;BMP180;8594;52.052;8.354;2023-02-01T06:03:46;100420.00;;;7.30
16956;BMP180;8594;52.052;8.354;2023-02-01T06:06:14;100433.00;;;7.30
16956;BMP180;8594;52.052;8.354;2023-02-01T06:08:41;100420.00;;;7.50
16956;BMP180;8594;52.052;8.354;2023-02-01T06:11:08;100420.00;;;7.20
16956;BMP180;8594;52.052;8.354;2023-02-01T06:13:35;100420.00;;;7.20
16956;BMP180;8594;52.052;8.354;2023-02-01T06:16:04;100413.00;;;7.30
16956;BMP180;8594;52.052;8.354;2023-02-01T06:18:33;100414.00;;;7.30
16956;BMP180;8594;52.052;8.354;2023-02-01T06:21:00;100424.00;;;7.40
16956;BMP180;8594;52.052;8.354;2023-02-01T06:23:30;100427.00;;;7.30
16956;BMP180;8594;52.052;8.354;2023-02-01T06:26:03;100422.00;;;7.30
16956;BMP180;8594;52.052;8.354;2023-02-01T06:28:31;100427.00;;;7.50
16956;BMP180;8594;52.052;8.354;2023-02-01T06:31:03;100434.00;;;7.50
16956;BMP180;8594;52.052;8.354;2023-02-01T06:33:32;100434.00;;;7.30
16956;BMP180;8594;52.052;8.354;2023-02-01T06:36:00;100427.00;;;7.30
16956;BMP180;8594;52.052;8.354;2023-02-01T06:38:29;100441.00;;;7.60
16956;BMP180;8594;52.052;8.354;2023-02-01T06:40:57;100424.00;;;7.30
16956;BMP180;8594;52.052;8.354;2023-02-01T06:43:26;100434.00;;;7.10
16956;BMP180;8594;52.052;8.354;2023-02-01T06:45:53;100442.00;;;7.30
16956;BMP180;8594;52.052;8.354;2023-02-01T06:48:25;100455.00;;;7.50
16956;BMP180;8594;52.052;8.354;2023-02-01T06:50:52;100449.00;;;7.60
16956;BMP180;8594;52.052;8.354;2023-02-01T06:53:18;100445.00;;;7.60
16956;BMP180;8594;52.052;8.354;2023-02-01T06:55:53;100449.00;;;7.40
16956;BMP180;8594;52.052;8.354;2023-02-01T06:58:20;100449.00;;;7.70
16956;BMP180;8594;52.052;8.354;2023-02-01T07:00:47;100453.00;;;7.60
16956;BMP180;8594;52.052;8.354;2023-02-01T07:03:14;100458.00;;;7.50
16956;BMP180;8594;52.052;8.354;2023-02-01T07:05:41;100465.00;;;7.90
16956;BMP180;8594;52.052;8.354;2023-02-01T07:08:08;100471.00;;;8.00
16956;BMP180;8594;52.052;8.354;2023-02-01T07:10:35;100470.00;;;7.70
16956;BMP180;8594;52.052;8.354;2023-02-01T07:13:03;100455.00;;;8.00
16956;BMP180;8594;52.052;8.354;2023-02-01T07:15:30;100472.00;;;7.90
16956;BMP180;8594;52.052;8.354;2023-02-01T07:17:57;100467.00;;;7.60
16956;BMP180;8594;52.052;8.354;2023-02-01T07:20:24;100476.00;;;7.80
16956;BMP180;8594;52.052;8.354;2023-02-01T07:22:55;100476.00;;;7.70
16956;BMP180;8594;52.052;8.354;2023-02-01T07:25:23;100486.00;;;8.00
16956;BMP180;8594;52.052;8.354;2023-02-01T07:27:49;100482.00;;;7.90
16956;BMP180;8594;52.052;8.354;2023-02-01T07:30:18;100478.00;;;7.90
16956;BMP180;8594;52.052;8.354;2023-02-01T07:32:45;100491.00;;;7.60
16956;BMP180;8594;52.052;8.354;2023-02-01T07:35:12;100497.00;;;7.30
16956;BMP180;8594;52.052;8.354;2023-02-01T07:37:42;100498.00;;;7.90
16956;BMP180;8594;52.052;8.354;2023-02-01T07:40:11;100495.00;;;7.70
16956;BMP180;8594;52.052;8.354;2023-02-01T07:42:38;100497.00;;;7.40
16956;BMP180;8594;52.052;8.354;2023-02-01T07:45:06;100506.00;;;7.70
16956;BMP180;8594;52.052;8.354;2023-02-01T07:47:34;100509.00;;;7.70
16956;BMP180;8594;52.052;8.354;2023-02-01T07:50:01;100526.00;;;7.60
16956;BMP180;8594;52.052;8.354;2023-02-01T07:52:28;100518.00;;;8.10
16956;BMP180;8594;52.052;8.354;2023-02-01T07:54:55;100511.00;;;7.90
16956;BMP180;8594;52.052;8.354;2023-02-01T07:57:22;100509.00;;;7.70
16956;BMP180;8594;52.052;8.354;2023-02-01T07:59:48;100518.00;;;7.80
16956;BMP180;8594;52.052;8.354;2023-02-01T08:02:34;100502.00;;;7.70
16956;BMP180;8594;52.052;8.354;2023-02-01T08:05:01;100511.00;;;7.50
16956;BMP180;8594;52.052;8.354;2023-02-01T08:07:28;100518.00;;;7.60
16956;BMP180;8594;52.052;8.354;2023-02-01T08:09:54;100518.00;;;7.40
16956;BMP180;8594;52.052;8.354;2023-02-01T08:12:21;100514.00;;;7.70
16956;BMP180;8594;52.052;8.354;2023-02-01T08:14:48;100515.00;;;7.60
16956;BMP180;8594;52.052;8.354;2023-02-01T08:17:15;100517.00;;;7.70
16956;BMP180;8594;52.052;8.354;2023-02-01T08:19:43;100518.00;;;7.80
16956;BMP180;8594;52.052;8.354;2023-02-01T08:22:10;100522.00;;;7.70
16956;BMP180;8594;52.052;8.354;2023-02-01T08:24:37;100531.00;;;7.90
16956;BMP180;8594;52.052;8.354;2023-02-01T08:27:06;100540.00;;;7.90
16956;BMP180;8594;52.052;8.354;2023-02-01T08:29:32;100534.00;;;7.90
16956;BMP180;8594;52.052;8.354;2023-02-01T08:31:59;100530.00;;;7.50
16956;BMP180;8594;52.052;8.354;2023-02-01T08:34:26;100520.00;;;7.70
16956;BMP180;8594;52.052;8.354;2023-02-01T08:36:54;100524.00;;;7.50
16956;BMP180;8594;52.052;8.354;2023-02-01T08:39:24;100530.00;;;7.60
16956;BMP180;8594;52.052;8.354;2023-02-01T08:41:51;100521.00;;;8.00
16956;BMP180;8594;52.052;8.354;2023-02-01T08:44:32;100528.00;;;7.80
16956;BMP180;8594;52.052;8.354;2023-02-01T08:46:59;100528.00;;;7.90
16956;BMP180;8594;52.052;8.354;2023-02-01T08:49:25;100527.00;;;7.90
16956;BMP180;8594;52.052;8.354;2023-02-01T08:51:53;100515.00;;;8.00
16956;BMP180;8594;52.052;8.354;2023-02-01T08:54:21;100530.00;;;7.90
16956;BMP180;8594;52.052;8.354;2023-02-01T08:56:48;100528.00;;;8.20
16956;BMP180;8594;52.052;8.354;2023-02-01T08:59:14;100530.00;;;8.40
16956;BMP180;8594;52.052;8.354;2023-02-01T09:01:41;100535.00;;;8.60
16956;BMP180;8594;52.052;8.354;2023-02-01T09:04:08;100534.00;;;8.50
16956;BMP180;8594;52.052;8.354;2023-02-01T09:06:35;100530.00;;;8.70
16956;BMP180;8594;52.052;8.354;2023-02-01T09:09:03;100532.00;;;8.40
16956;BMP180;8594;52.052;8.354;2023-02-01T09:11:30;100529.00;;;8.60
16956;BMP180;8594;52.052;8.354;2023-02-01T09:13:56;100526.00;;;8.40
16956;BMP180;8594;52.052;8.354;2023-02-01T09:16:23;100519.00;;;8.70
16956;BMP180;8594;52.052;8.354;2023-02-01T09:18:50;100528.00;;;8.70
16956;BMP180;8594;52.052;8.354;2023-02-01T09:21:17;100527.00;;;8.40
16956;BMP180;8594;52.052;8.354;2023-02-01T09:23:44;100527.00;;;8.70
16956;BMP180;8594;52.052;8.354;2023-02-01T09:26:14;100526.00;;;8.50
16956;BMP180;8594;52.052;8.354;2023-02-01T09:28:41;100515.00;;;8.50
16956;BMP180;8594;52.052;8.354;2023-02-01T09:31:08;100511.00;;;8.10
16956;BMP180;8594;52.052;8.354;2023-02-01T09:33:35;100509.00;;;8.30
16956;BMP180;8594;52.052;8.354;2023-02-01T09:36:04;100512.00;;;8.60
16956;BMP180;8594;52.052;8.354;2023-02-01T09:38:32;100515.00;;;8.60
16956;BMP180;8594;52.052;8.354;2023-02-01T09:40:59;100505.00;;;8.10
16956;BMP180;8594;52.052;8.354;2023-02-01T09:43:43;100515.00;;;8.40
16956;BMP180;8594;52.052;8.354;2023-02-01T09:46:22;100511.00;;;8.40
16956;BMP180;8594;52.052;8.354;2023-02-01T09:48:54;100511.00;;;8.40
16956;BMP180;8594;52.052;8.354;2023-02-01T09:51:26;100508.00;;;8.70
16956;BMP180;8594;52.052;8.354;2023-02-01T09:54:02;100499.00;;;8.90
16956;BMP180;8594;52.052;8.354;2023-02-01T09:56:39;100503.00;;;9.20
16956;BMP180;8594;52.052;8.354;2023-02-01T09:59:19;100503.00;;;8.80
16956;BMP180;8594;52.052;8.354;2023-02-01T10:01:50;100502.00;;;8.80
16956;BMP180;8594;52.052;8.354;2023-02-01T10:04:17;100495.00;;;8.80
16956;BMP180;8594;52.052;8.354;2023-02-01T10:07:02;100496.00;;;8.70
16956;BMP180;8594;52.052;8.354;2023-02-01T10:09:47;100494.00;;;9.10
16956;BMP180;8594;52.052;8.354;2023-02-01T10:12:56;100486.00;;;8.80
16956;BMP180;8594;52.052;8.354;2023-02-01T10:15:43;100489.00;;;9.30
16956;BMP180;8594;52.052;8.354;2023-02-01T10:18:33;100488.00;;;9.20
16956;BMP180;8594;52.052;8.354;2023-02-01T10:21:17;100481.00;;;8.70
16956;BMP180;8594;52.052;8.354;2023-02-01T10:24:10;100482.00;;;9.10
16956;BMP180;8594;52.052;8.354;2023-02-01T10:26:45;100492.00;;;9.10
16956;BMP180;8594;52.052;8.354;2023-02-01T10:29:18;100495.00;;;8.90
16956;BMP180;8594;52.052;8.354;2023-02-01T10:31:46;100493.00;;;9.00
16956;BMP180;8594;52.052;8.354;2023-02-01T10:34:21;100488.00;;;8.80
16956;BMP180;8594;52.052;8.354;2023-02-01T10:36:55;100491.00;;;8.70
16956;BMP180;8594;52.052;8.354;2023-02-01T10:39:23;100484.00;;;8.60
16956;BMP180;8594;52.052;8.354;2023-02-01T10:41:51;100481.00;;;8.70
16956;BMP180;8594;52.052;8.354;2023-02-01T10:44:22;100476.00;;;8.70
16956;BMP180;8594;52.052;8.354;2023-02-01T10:46:52;100472.00;;;9.00
16956;BMP180;8594;52.052;8.354;2023-02-01T10:49:26;100476.00;;;9.10
16956;BMP180;8594;52.052;8.354;2023-02-01T10:52:04;100493.00;;;9.30
16956;BMP180;8594;52.052;8.354;2023-02-01T10:54:36;100481.00;;;8.90
16956;BMP180;8594;52.052;8.354;2023-02-01T10:57:07;100479.00;;;9.00
16956;BMP180;8594;52.052;8.354;2023-02-01T10:59:35;100483.00;;;8.80
16956;BMP180;8594;52.052;8.354;2023-02-01T11:02:19;100491.00;;;9.00
16956;BMP180;8594;52.052;8.354;2023-02-01T11:04:46;100471.00;;;9.20
16956;BMP180;8594;52.052;8.354;2023-02-01T11:07:22;100466.00;;;8.80
16956;BMP180;8594;52.052;8.354;2023-02-01T11:09:52;100457.00;;;8.80
16956;BMP180;8594;52.052;8.354;2023-02-01T11:12:29;100445.00;;;9.00
16956;BMP180;8594;52.052;8.354;2023-02-01T11:15:13;100446.00;;;8.70
16956;BMP180;8594;52.052;8.354;2023-02-01T11:17:44;100440.00;;;9.10
16956;BMP180;8594;52.052;8.354;2023-02-01T11:20:16;100445.00;;;8.70
16956;BMP180;8594;52.052;8.354;2023-02-01T11:22:49;100447.00;;;9.40
16956;BMP180;8594;52.052;8.354;2023-02-01T11:25:19;100435.00;;;9.10
16956;BMP180;8594;52.052;8.354;2023-02-01T11:27:49;100430.00;;;9.00
16956;BMP180;8594;52.052;8.354;2023-02-01T11:30:26;100426.00;;;9.00
16956;BMP180;8594;52.052;8.354;2023-02-01T11:32:56;100420.00;;;9.00
16956;BMP180;8594;52.052;8.354;2023-02-01T11:35:24;100423.00;;;9.00
16956;BMP180;8594;52.052;8.354;2023-02-01T11:37:56;100409.00;;;8.80
16956;BMP180;8594;52.052;8.354;2023-02-01T11:40:29;100397.00;;;8.60
16956;BMP180;8594;52.052;8.354;2023-02-01T11:43:16;100402.00;;;8.70
16956;BMP180;8594;52.052;8.354;2023-02-01T11:45:55;100392.00;;;8.70
16956;BMP180;8594;52.052;8.354;2023-02-01T11:48:26;100396.00;;;8.70
16956;BMP180;8594;52.052;8.354;2023-02-01T11:51:08;100399.00;;;8.90
16956;BMP180;8594;52.052;8.354;2023-02-01T11:54:01;100391.00;;;8.40
16956;BMP180;8594;52.052;8.354;2023-02-01T11:56:37;100398.00;;;8.30
16956;BMP180;8594;52.052;8.354;2023-02-01T11:59:19;100396.00;;;8.50
16956;BMP180;8594;52.052;8.354;2023-02-01T12:02:20;100394.00;;;8.60
16956;BMP180;8594;52.052;8.354;2023-02-01T12:05:15;100402.00;;;8.30
16956;BMP180;8594;52.052;8.354;2023-02-01T12:08:04;100399.00;;;8.30
16956;BMP180;8594;52.052;8.354;2023-02-01T12:10:49;100380.00;;;8.00
16956;BMP180;8594;52.052;8.354;2023-02-01T12:13:33;100414.00;;;8.20
16956;BMP180;8594;52.052;8.354;2023-02-01T12:16:17;100369.00;;;7.70
16956;BMP180;8594;52.052;8.354;2023-02-01T12:19:23;100366.00;;;8.10
16956;BMP180;8594;52.052;8.354;2023-02-01T12:22:12;100365.00;;;8.00
16956;BMP180;8594;52.052;8.354;2023-02-01T12:25:05;100365.00;;;8.30
16956;BMP180;8594;52.052;8.354;2023-02-01T12:28:04;100365.00;;;8.30
16956;BMP180;8594;52.052;8.354;2023-02-01T12:34:09;100364.00;;;7.70
16956;BMP180;8594;52.052;8.354;2023-02-01T12:36:49;100354.00;;;7.90
16956;BMP180;8594;52.052;8.354;2023-02-01T12:39:29;100366.00;;;7.60
16956;BMP180;8594;52.052;8.354;2023-02-01T12:42:03;100357.00;;;7.60
16956;BMP180;8594;52.052;8.354;2023-02-01T12:44:43;100357.00;;;7.60
16956;BMP180;8594;52.052;8.354;2023-02-01T12:47:20;100344.00;;;7.50
16956;BMP180;8594;52.052;8.354;2023-02-01T12:49:56;100339.00;;;7.40
16956;BMP180;8594;52.052;8.354;2023-02-01T12:52:33;100319.00;;;7.70
16956;BMP180;8594;52.052;8.354;2023-02-01T12:55:15;100323.00;;;7.60
16956;BMP180;8594;52.052;8.354;2023-02-01T12:57:50;100332.00;;;7.60
16956;BMP180;8594;52.052;8.354;2023-02-01T13:00:27;100331.00;;;7.80
16956;BMP180;8594;52.052;8.354;2023-02-01T13:03:05;100321.00;;;7.90
16956;BMP180;8594;52.052;8.354;2023-02-01T13:05:50;100311.00;;;7.90
16956;BMP180;8594;52.052;8.354;2023-02-01T13:08:23;100314.00;;;7.90
16956;BMP180;8594;52.052;8.354;2023-02-01T13:10:59;100310.00;;;7.60
16956;BMP180;8594;52.052;8.354;2023-02-01T13:13:44;100323.00;;;7.90
16956;BMP180;8594;52.052;8.354;2023-02-01T13:16:18;100310.00;;;8.00
16956;BMP180;8594;52.052;8.354;2023-02-01T13:19:00;100298.00;;;7.80
16956;BMP180;8594;52.052;8.354;2023-02-01T13:21:33;100293.00;;;7.50
16956;BMP180;8594;52.052;8.354;2023-02-01T13:24:02;100293.00;;;8.00
16956;BMP180;8594;52.052;8.354;2023-02-01T13:26:30;100311.00;;;8.20
16956;BMP180;8594;52.052;8.354;2023-02-01T13:29:02;100314.00;;;7.80
16956;BMP180;8594;52.052;8.354;2023-02-01T13:32:13;100308.00;;;8.20
16956;BMP180;8594;52.052;8.354;2023-02-01T13:35:23;100294.00;;;7.70
16956;BMP180;8594;52.052;8.354;2023-02-01T13:38:45;100300.00;;;7.90
16956;BMP180;8594;52.052;8.354;2023-02-01T13:41:25;100300.00;;;8.10
16956;BMP180;8594;52.052;8.354;2023-02-01T13:43:59;100309.00;;;8.10
16956;BMP180;8594;52.052;8.354;2023-02-01T13:46:27;100306.00;;;7.90
16956;BMP180;8594;52.052;8.354;2023-02-01T13:48:58;100305.00;;;8.00
16956;BMP180;8594;52.052;8.354;2023-02-01T13:51:37;100302.00;;;8.00
16956;BMP180;8594;52.052;8.354;2023-02-01T13:54:05;100293.00;;;7.90
16956;BMP180;8594;52.052;8.354;2023-02-01T13:56:41;100305.00;;;7.80
16956;BMP180;8594;52.052;8.354;2023-02-01T14:00:07;100335.00;;;8.30
16956;BMP180;8594;52.052;8.354;2023-02-01T14:02:49;100319.00;;;8.10
16956;BMP180;8594;52.052;8.354;2023-02-01T14:06:05;100332.00;;;8.00
16956;BMP180;8594;52.052;8.354;2023-02-01T14:09:31;100334.00;;;7.90
16956;BMP180;8594;52.052;8.354;2023-02-01T14:12:46;100339.00;;;7.50
16956;BMP180;8594;52.052;8.354;2023-02-01T14:15:23;100343.00;;;8.00
16956;BMP180;8594;52.052;8.354;2023-02-01T14:17:51;100343.00;;;7.50
16956;BMP180;8594;52.052;8.354;2023-02-01T14:20:46;100339.00;;;7.70
16956;BMP180;8594;52.052;8.354;2023-02-01T14:23:29;100351.00;;;7.40
16956;BMP180;8594;52.052;8.354;2023-02-01T14:26:18;100357.00;;;7.20
16956;BMP180;8594;52.052;8.354;2023-02-01T14:29:02;100350.00;;;6.80
16956;BMP180;8594;52.052;8.354;2023-02-01T14:31:51;100368.00;;;6.60
16956;BMP180;8594;52.052;8.354;2023-02-01T14:34:28;100357.00;;;6.40
16956;BMP180;8594;52.052;8.354;2023-02-01T14:37:00;100343.00;;;6.80
16956;BMP180;8594;52.052;8.354;2023-02-01T14:39:38;100344.00;;;7.20
16956;BMP180;8594;52.052;8.354;2023-02-01T14:42:22;100358.00;;;7.40
16956;BMP180;8594;52.052;8.354;2023-02-01T14:44:52;100368.00;;;7.20
16956;BMP180;8594;52.052;8.354;2023-02-01T14:47:34;100357.00;;;7.20
16956;BMP180;8594;52.052;8.354;2023-02-01T14:50:33;100362.00;;;7.00
16956;BMP180;8594;52.052;8.354;2023-02-01T14:53:20;100360.00;;;7.10
16956;BMP180;8594;52.052;8.354;2023-02-01T14:55:53;100369.00;;;7.20
16956;BMP180;8594;52.052;8.354;2023-02-01T14:58:35;100368.00;;;7.50
16956;BMP180;8594;52.052;8.354;2023-02-01T15:01:23;100372.00;;;7.50
16956;BMP180;8594;52.052;8.354;2023-02-01T15:03:58;100358.00;;;7.30
16956;BMP180;8594;52.052;8.354;2023-02-01T15:06:33;100372.00;;;7.50